Time;durP1;ratioP1;P1;durP2;ratioP2;P2;SDS_P1;SDS_P2;PMS_P1;PMS_P2;Temp;Humidity;BMP_temperature;BMP_pressure;BME280_temperature;BME280_humidity;BME280_pressure;Samples;Min_cycle;Max_cycle;Signal;HPM_P1;HPM_P2
2023/05/18 00:01:09;;;;;;;8.40;3.33;;;;;;;;;;5039043;28;20014;-81
2023/05/18 00:03:36;;;;;;;4.30;2.97;;;;;;;;;;5014630;28;20034;-80
2023/05/18 00:06:03;;;;;;;3.67;3.05;;;;;;;;;;5038106;28;20009;-81
2023/05/18 00:08:30;;;;;;;5.40;3.25;;;4.30;99.90;;;;;;5036414;28;20030;-81
2023/05/18 00:11:41;;;;;;;6.40;2.67;;;4.20;99.90;;;;;;5021535;28;20010;-79
2023/05/18 00:14:07;;;;;;;5.63;2.75;;;4.20;99.90;;;;;;5020685;28;20026;-81
2023/05/18 00:16:32;;;;;;;6.72;3.92;;;4.30;99.90;;;;;;5020622;28;20097;-78
2023/05/18 00:18:58;;;;;;;3.58;2.47;;;4.60;99.90;;;;;;5020708;28;20037;-78
2023/05/18 00:21:29;;;;;;;4.60;3.13;;;4.30;99.90;;;;;;5034166;28;20086;-81
2023/05/18 00:23:55;;;;;;;3.53;2.67;;;4.30;99.90;;;;;;5020098;28;20086;-80
2023/05/18 00:26:20;;;;;;;7.47;3.30;;;4.30;99.90;;;;;;5021126;28;20026;-79
2023/05/18 00:29:09;;;;;;;4.43;2.72;;;4.30;99.90;;;;;;5020519;28;20014;-78
2023/05/18 00:31:37;;;;;;;5.47;3.55;;;4.10;99.90;;;;;;5021387;28;20006;-80
2023/05/18 00:34:07;;;;;;;4.72;3.00;;;4.50;99.90;;;;;;5021177;28;20021;-78
2023/05/18 00:36:33;;;;;;;6.60;3.35;;;4.10;99.90;;;;;;5037798;28;20034;-79
2023/05/18 00:38:59;;;;;;;5.10;3.58;;;4.20;99.90;;;;;;5021582;28;20010;-78
2023/05/18 00:41:26;;;;;;;4.78;2.20;;;4.30;99.90;;;;;;5035999;28;20010;-79
2023/05/18 00:43:56;;;;;;;5.90;3.10;;;4.10;99.90;;;;;;5021028;28;20443;-79
2023/05/18 00:46:22;;;;;;;6.75;2.92;;;4.00;99.90;;;;;;5014019;28;20092;-81
2023/05/18 00:48:50;;;;;;;9.40;3.20;;;4.40;99.90;;;;;;5017754;28;20022;-80
2023/05/18 00:51:20;;;;;;;6.78;3.22;;;4.00;99.90;;;;;;5018222;28;20025;-81
2023/05/18 00:53:46;;;;;;;6.13;2.70;;;4.00;99.90;;;;;;5020479;28;20085;-81
2023/05/18 00:56:12;;;;;;;6.05;3.47;;;;;;;;;;5036349;28;20030;-80
2023/05/18 00:58:40;;;;;;;8.73;3.10;;;4.00;99.90;;;;;;5036420;28;20018;-79
2023/05/18 01:01:05;;;;;;;4.15;2.85;;;4.60;99.90;;;;;;4995837;28;20026;-79
2023/05/18 01:03:38;;;;;;;11.98;3.60;;;3.90;99.90;;;;;;4993378;28;20395;-78
2023/05/18 01:06:08;;;;;;;4.18;2.90;;;3.90;99.90;;;;;;4993326;28;20386;-78
2023/05/18 01:08:35;;;;;;;5.43;3.03;;;4.00;99.90;;;;;;4993700;28;20029;-79
2023/05/18 01:11:17;;;;;;;5.10;3.38;;;4.00;99.90;;;;;;4992450;28;20495;-78
2023/05/18 01:13:49;;;;;;;6.43;2.72;;;4.10;99.90;;;;;;5010704;28;20081;-79
2023/05/18 01:16:22;;;;;;;4.75;2.60;;;4.00;99.90;;;;;;5010710;28;20022;-79
2023/05/18 01:18:59;;;;;;;8.25;3.72;;;4.00;99.90;;;;;;5010981;28;20028;-79
2023/05/18 01:21:56;;;;;;;3.65;2.60;;;3.90;99.90;;;;;;5011127;28;20080;-79
2023/05/18 01:24:42;;;;;;;5.65;3.40;;;3.90;99.90;;;;;;4992975;28;20029;-79
2023/05/18 01:27:08;;;;;;;6.88;2.92;;;3.90;99.90;;;;;;4994967;28;20038;-78
2023/05/18 01:29:34;;;;;;;4.00;2.88;;;3.90;99.90;;;;;;4996825;28;20084;-79
2023/05/18 01:32:00;;;;;;;6.15;3.20;;;4.80;99.90;;;;;;4996998;28;20481;-79
2023/05/18 01:34:26;;;;;;;6.15;3.00;;;4.00;99.90;;;;;;4997314;28;20033;-78
2023/05/18 01:36:51;;;;;;;5.70;2.60;;;3.90;99.90;;;;;;4996827;28;20115;-78
2023/05/18 01:39:18;;;;;;;3.60;2.90;;;3.90;99.90;;;;;;4996779;28;20273;-78
2023/05/18 01:42:11;;;;;;;5.78;2.95;;;3.90;99.90;;;;;;4996588;28;20225;-78
2023/05/18 01:44:46;;;;;;;10.18;3.22;;;3.90;99.90;;;;;;4996954;28;20025;-79
2023/05/18 01:47:14;;;;;;;8.77;3.83;;;3.90;99.90;;;;;;4996644;28;20053;-78
2023/05/18 01:49:40;;;;;;;4.75;2.72;;;;;;;;;;4996921;28;20537;-78
2023/05/18 01:52:15;;;;;;;6.60;3.55;;;3.80;99.90;;;;;;4996735;28;20026;-78
2023/05/18 01:54:44;;;;;;;5.38;3.47;;;3.90;99.90;;;;;;5009415;28;20033;-79
2023/05/18 01:57:10;;;;;;;7.10;2.80;;;4.50;99.90;;;;;;4996792;28;20017;-79
2023/05/18 01:59:37;;;;;;;5.88;2.88;;;4.10;99.90;;;;;;5014195;28;20049;-78
2023/05/18 02:02:03;;;;;;;4.55;3.05;;;4.20;99.90;;;;;;4996461;28;20513;-78
2023/05/18 02:04:29;;;;;;;4.75;3.25;;;3.80;99.90;;;;;;5013887;28;20386;-78
2023/05/18 02:06:55;;;;;;;4.57;2.92;;;3.80;99.90;;;;;;4996017;28;20038;-78
2023/05/18 02:09:21;;;;;;;3.60;3.22;;;3.80;99.90;;;;;;4996545;28;20075;-78
2023/05/18 02:11:47;;;;;;;3.72;2.45;;;4.30;99.90;;;;;;5013476;28;20033;-78
2023/05/18 02:14:13;;;;;;;5.18;3.10;;;4.00;99.90;;;;;;4996674;28;20405;-79
2023/05/18 02:16:39;;;;;;;5.43;2.67;;;3.50;99.90;;;;;;4996058;28;20026;-79
2023/05/18 02:19:05;;;;;;;4.60;2.78;;;4.30;99.90;;;;;;4995084;28;20079;-79
2023/05/18 02:21:33;;;;;;;6.80;3.47;;;4.00;99.90;;;;;;4994280;28;20045;-79
2023/05/18 02:23:59;;;;;;;7.63;3.28;;;3.90;99.90;;;;;;4994190;28;20029;-79
2023/05/18 02:26:25;;;;;;;7.07;3.40;;;3.40;99.90;;;;;;4994180;28;20088;-78
2023/05/18 02:28:50;;;;;;;4.85;2.95;;;3.40;99.90;;;;;;4994605;28;20026;-79
2023/05/18 02:31:16;;;;;;;5.38;3.55;;;4.00;99.90;;;;;;4994130;28;20026;-79
2023/05/18 02:33:42;;;;;;;4.07;2.85;;;3.50;99.90;;;;;;4994371;28;20026;-79
2023/05/18 02:36:12;;;;;;;7.85;3.38;;;3.50;99.90;;;;;;4994455;28;20022;-78
2023/05/18 02:38:42;;;;;;;5.50;2.88;;;3.70;99.90;;;;;;4994491;28;20060;-78
2023/05/18 02:41:09;;;;;;;7.18;4.30;;;3.30;99.90;;;;;;4995075;28;20014;-79
2023/05/18 02:43:35;;;;;;;4.95;3.65;;;3.30;99.90;;;;;;5012026;28;20030;-79
2023/05/18 02:46:04;;;;;;;4.63;3.03;;;3.30;99.90;;;;;;4994453;28;20079;-78
2023/05/18 02:48:30;;;;;;;6.03;3.58;;;3.70;99.90;;;;;;4994314;28;20542;-78
2023/05/18 02:50:55;;;;;;;5.97;3.17;;;5.00;99.90;;;;;;4994981;28;20144;-79
2023/05/18 02:53:21;;;;;;;8.05;3.47;;;3.20;99.90;;;;;;5013290;28;20064;-78
2023/05/18 02:55:48;;;;;;;5.47;3.33;;;3.10;99.90;;;;;;4995413;28;20478;-79
2023/05/18 02:58:14;;;;;;;4.40;2.83;;;3.20;99.90;;;;;;4995191;28;20018;-79
2023/05/18 03:00:40;;;;;;;5.55;3.63;;;3.10;99.90;;;;;;5012737;28;20045;-78
2023/05/18 03:03:09;;;;;;;5.65;3.75;;;3.00;99.90;;;;;;5012793;28;20414;-78
2023/05/18 03:05:35;;;;;;;8.82;3.88;;;3.30;99.90;;;;;;4995347;28;20049;-79
2023/05/18 03:08:01;;;;;;;6.63;3.25;;;3.00;99.90;;;;;;4995180;28;20414;-78
2023/05/18 03:10:27;;;;;;;6.55;3.50;;;4.50;99.90;;;;;;5012736;28;20531;-79
2023/05/18 03:12:52;;;;;;;10.80;4.70;;;3.00;99.90;;;;;;4995244;28;20545;-78
2023/05/18 03:15:19;;;;;;;5.57;3.55;;;3.10;99.90;;;;;;5012569;28;20044;-78
2023/05/18 03:17:45;;;;;;;7.28;3.40;;;3.00;99.90;;;;;;4994547;28;20394;-78
2023/05/18 03:20:13;;;;;;;8.35;3.47;;;3.50;99.90;;;;;;4995308;28;20650;-78
2023/05/18 03:22:39;;;;;;;5.13;3.75;;;3.10;99.90;;;;;;5012920;28;20101;-79
2023/05/18 03:25:05;;;;;;;7.88;3.67;;;3.10;99.90;;;;;;4994653;28;20026;-78
2023/05/18 03:27:31;;;;;;;10.73;3.47;;;3.10;99.90;;;;;;5012415;28;20249;-78
2023/05/18 03:29:57;;;;;;;6.72;3.30;;;3.20;99.90;;;;;;4994724;28;20022;-79
2023/05/18 03:32:27;;;;;;;5.07;3.22;;;3.60;99.90;;;;;;4994568;28;20060;-79
2023/05/18 03:34:53;;;;;;;4.43;3.20;;;3.70;99.90;;;;;;4994318;28;20022;-79
2023/05/18 03:37:19;;;;;;;6.55;3.50;;;4.20;99.90;;;;;;4994793;28;20030;-80
2023/05/18 03:39:45;;;;;;;13.57;4.45;;;3.80;99.90;;;;;;5011986;28;20475;-79
2023/05/18 03:42:10;;;;;;;9.18;3.80;;;3.20;99.90;;;;;;5012245;28;20105;-79
2023/05/18 03:44:36;;;;;;;6.65;4.07;;;3.20;99.90;;;;;;4994620;28;20040;-78
2023/05/18 03:47:02;;;;;;;7.57;3.83;;;3.30;99.90;;;;;;4994603;28;20125;-78
2023/05/18 03:49:29;;;;;;;6.22;4.47;;;3.20;99.90;;;;;;5010666;28;20455;-79
2023/05/18 03:51:55;;;;;;;9.35;3.90;;;3.30;99.90;;;;;;4995944;28;20029;-78
2023/05/18 03:54:21;;;;;;;7.93;3.75;;;3.20;99.90;;;;;;4995942;28;20029;-79
2023/05/18 03:56:47;;;;;;;7.20;4.30;;;3.30;99.90;;;;;;4996041;28;20028;-78
2023/05/18 03:59:13;;;;;;;6.00;3.50;;;3.30;99.90;;;;;;4996296;28;20054;-78
2023/05/18 04:01:43;;;;;;;8.45;4.47;;;3.50;99.90;;;;;;4995964;28;20022;-79
2023/05/18 04:04:08;;;;;;;;;;;3.40;99.90;;;;;;4996122;28;20406;-78
2023/05/18 04:06:34;;;;;;;9.45;5.45;;;3.50;99.90;;;;;;4994309;28;19917;-78
2023/05/18 04:09:03;;;;;;;6.65;3.58;;;3.70;99.90;;;;;;4993980;28;20120;-78
2023/05/18 04:11:29;;;;;;;5.47;3.05;;;3.70;99.90;;;;;;5011256;28;20068;-79
2023/05/18 04:13:56;;;;;;;8.43;5.15;;;3.80;99.90;;;;;;4994241;28;20038;-79
2023/05/18 04:16:22;;;;;;;11.50;4.13;;;3.80;99.90;;;;;;4994233;28;20030;-79
2023/05/18 04:18:48;;;;;;;7.68;4.28;;;3.90;99.90;;;;;;4994389;28;20022;-80
2023/05/18 04:21:15;;;;;;;7.60;4.63;;;4.00;99.90;;;;;;4994421;28;20076;-79
2023/05/18 04:23:40;;;;;;;9.27;4.10;;;4.20;99.90;;;;;;4994109;28;20112;-79
2023/05/18 04:26:07;;;;;;;7.70;4.05;;;4.40;99.90;;;;;;4993292;28;20108;-78
2023/05/18 04:28:33;;;;;;;11.75;4.50;;;5.40;99.90;;;;;;4993552;28;20061;-79
2023/05/18 04:31:00;;;;;;;5.30;3.80;;;5.80;99.90;;;;;;4993905;28;20081;-79
2023/05/18 04:33:27;;;;;;;11.07;5.45;;;5.60;99.90;;;;;;4993899;28;20453;-79
2023/05/18 04:35:57;;;;;;;6.45;5.25;;;5.30;99.90;;;;;;5011460;28;20478;-79
2023/05/18 04:38:24;;;;;;;8.57;4.55;;;5.10;99.90;;;;;;4993823;28;20028;-79
2023/05/18 04:40:49;;;;;;;6.35;4.28;;;5.30;99.90;;;;;;5011298;28;20105;-79
2023/05/18 04:43:17;;;;;;;7.13;4.35;;;5.40;99.90;;;;;;4993356;28;20563;-78
2023/05/18 04:45:45;;;;;;;9.70;5.35;;;6.40;99.90;;;;;;5011553;28;20101;-78
2023/05/18 04:48:12;;;;;;;8.30;4.57;;;5.60;99.90;;;;;;4993496;28;20087;-78
2023/05/18 04:50:39;;;;;;;13.25;5.30;;;5.60;99.90;;;;;;4993437;28;20491;-78
2023/05/18 04:53:07;;;;;;;5.78;3.53;;;5.70;99.90;;;;;;4993550;28;20556;-78
2023/05/18 04:55:33;;;;;;;8.73;3.65;;;5.70;99.90;;;;;;5010747;28;20044;-78
2023/05/18 04:58:00;;;;;;;6.20;3.67;;;5.80;99.90;;;;;;5010519;28;20042;-79
2023/05/18 05:00:30;;;;;;;8.85;4.15;;;5.80;99.90;;;;;;4992705;28;20070;-79
2023/05/18 05:02:57;;;;;;;5.50;3.50;;;5.90;99.90;;;;;;4993037;28;20022;-79
2023/05/18 05:05:25;;;;;;;8.70;4.03;;;5.90;99.90;;;;;;5010799;28;20336;-79
2023/05/18 05:07:54;;;;;;;9.65;4.18;;;6.00;99.90;;;;;;5011767;28;20464;-78
2023/05/18 05:10:21;;;;;;;9.75;4.32;;;6.00;99.90;;;;;;4994600;28;20478;-78
2023/05/18 05:12:48;;;;;;;5.32;3.58;;;6.10;99.90;;;;;;4996129;28;20040;-79
2023/05/18 05:15:13;;;;;;;7.35;4.30;;;6.10;99.90;;;;;;4996396;28;20026;-80
2023/05/18 05:17:39;;;;;;;8.82;4.20;;;6.20;99.90;;;;;;4996172;28;20045;-79
2023/05/18 05:20:07;;;;;;;8.85;4.55;;;6.30;99.90;;;;;;5000712;28;20129;-78
2023/05/18 05:22:32;;;;;;;9.85;4.20;;;6.30;99.90;;;;;;4978710;28;20038;-79
2023/05/18 05:24:58;;;;;;;8.52;4.35;;;6.50;99.90;;;;;;4995241;28;20087;-79
2023/05/18 05:27:25;;;;;;;8.55;4.00;;;6.60;99.90;;;;;;4995952;28;20041;-79
2023/05/18 05:29:52;;;;;;;7.10;3.70;;;6.60;99.90;;;;;;5013569;28;20025;-79
2023/05/18 05:32:17;;;;;;;8.45;4.60;;;6.70;99.90;;;;;;4995461;28;20410;-79
2023/05/18 05:34:45;;;;;;;8.63;4.60;;;6.70;99.90;;;;;;4996076;28;20029;-79
2023/05/18 05:37:11;;;;;;;7.40;3.95;;;6.70;99.90;;;;;;5005649;28;20017;-79
2023/05/18 05:39:37;;;;;;;13.30;4.68;;;6.70;99.90;;;;;;5022538;28;20041;-79
2023/05/18 05:42:04;;;;;;;14.10;4.45;;;6.70;99.90;;;;;;5004886;28;20320;-79
2023/05/18 05:44:30;;;;;;;6.90;4.40;;;6.80;99.90;;;;;;5004492;28;20109;-77
2023/05/18 05:46:56;;;;;;;7.07;4.22;;;6.90;99.90;;;;;;5022253;28;20026;-78
2023/05/18 05:49:22;;;;;;;9.18;4.18;;;7.00;99.90;;;;;;5005108;28;20061;-78
2023/05/18 05:51:47;;;;;;;6.80;4.18;;;7.00;99.90;;;;;;5023356;28;20055;-78
2023/05/18 05:54:14;;;;;;;7.97;4.63;;;7.00;99.90;;;;;;5005083;28;20026;-77
2023/05/18 05:56:39;;;;;;;14.20;5.50;;;7.00;99.90;;;;;;5022059;28;20030;-78
2023/05/18 05:59:05;;;;;;;11.80;4.93;;;7.00;99.90;;;;;;4989699;28;20462;-79
2023/05/18 06:01:31;;;;;;;9.35;4.50;;;6.90;99.90;;;;;;5002901;28;20218;-79
2023/05/18 06:03:57;;;;;;;13.52;5.05;;;7.00;99.90;;;;;;4984371;28;20222;-79
2023/05/18 06:06:22;;;;;;;9.88;5.55;;;7.10;99.90;;;;;;4985568;28;20031;-80
2023/05/18 06:08:48;;;;;;;9.32;4.85;;;7.10;99.90;;;;;;5004938;28;20049;-80
2023/05/18 06:11:14;;;;;;;10.55;5.22;;;7.10;99.90;;;;;;5005529;28;20014;-80
2023/05/18 06:13:39;;;;;;;13.18;5.50;;;7.10;99.90;;;;;;4988735;28;20254;-80
2023/05/18 06:16:05;;;;;;;9.05;5.53;;;7.30;99.90;;;;;;4990695;28;20397;-80
2023/05/18 06:18:31;;;;;;;13.38;5.43;;;7.60;99.90;;;;;;5007845;28;20037;-80
2023/05/18 06:20:56;;;;;;;9.60;5.47;;;7.70;99.90;;;;;;4988899;28;20057;-81
2023/05/18 06:23:22;;;;;;;7.90;4.82;;;8.00;99.90;;;;;;4986851;28;20030;-79
2023/05/18 06:25:48;;;;;;;14.80;5.22;;;8.10;99.90;;;;;;4986107;28;20077;-79
2023/05/18 06:28:14;;;;;;;11.73;5.15;;;8.20;99.90;;;;;;4984595;28;20266;-80
2023/05/18 06:30:40;;;;;;;9.48;5.03;;;8.10;99.90;;;;;;4983689;28;20046;-79
2023/05/18 06:33:07;;;;;;;8.57;4.22;;;8.20;99.90;;;;;;5001519;28;20334;-80
2023/05/18 06:35:33;;;;;;;13.30;5.45;;;8.30;99.90;;;;;;4983547;28;20041;-79
2023/05/18 06:37:58;;;;;;;15.40;5.05;;;8.60;99.90;;;;;;5004900;28;20061;-81
2023/05/18 06:40:24;;;;;;;9.50;5.22;;;8.70;99.90;;;;;;5005415;28;20022;-81
2023/05/18 06:42:49;;;;;;;7.63;4.70;;;8.70;99.90;;;;;;4987683;28;20089;-79
2023/05/18 06:45:18;;;;;;;8.73;4.85;;;8.90;99.90;;;;;;5003909;28;20426;-80
2023/05/18 06:47:45;;;;;;;8.13;4.28;;;9.50;99.90;;;;;;5005449;28;20053;-81
2023/05/18 06:50:10;;;;;;;10.98;4.30;;;9.80;99.90;;;;;;4987363;28;20039;-80
2023/05/18 06:52:36;;;;;;;7.47;4.35;;;10.10;99.90;;;;;;4984635;28;20033;-78
2023/05/18 06:55:02;;;;;;;8.02;4.03;;;10.70;99.90;;;;;;5000562;28;20086;-78
2023/05/18 06:57:28;;;;;;;6.60;4.15;;;11.20;99.90;;;;;;4983455;28;20022;-79
2023/05/18 06:59:54;;;;;;;8.27;4.55;;;11.40;99.90;;;;;;4984546;28;20054;-79
2023/05/18 07:02:20;;;;;;;5.95;3.88;;;11.70;99.90;;;;;;4983752;28;20053;-78
2023/05/18 07:04:47;;;;;;;8.00;3.92;;;12.10;99.90;;;;;;4989607;28;20023;-78
2023/05/18 07:07:13;;;;;;;6.47;4.05;;;12.30;99.90;;;;;;5003006;28;20026;-78
2023/05/18 07:09:42;;;;;;;7.90;4.35;;;12.70;99.90;;;;;;4999699;28;20050;-79
2023/05/18 07:12:07;;;;;;;8.25;5.35;;;12.70;99.90;;;;;;4985571;28;20022;-78
2023/05/18 07:14:33;;;;;;;7.97;4.20;;;;;;;;;;5000915;28;20025;-78
2023/05/18 07:16:59;;;;;;;11.45;3.95;;;13.00;98.00;;;;;;4983089;28;20037;-79
2023/05/18 07:19:25;;;;;;;9.10;4.07;;;13.00;97.60;;;;;;4986170;28;20027;-79
2023/05/18 07:21:50;;;;;;;10.43;4.60;;;13.20;97.40;;;;;;4985880;28;20034;-79
2023/05/18 07:24:16;;;;;;;5.70;4.18;;;13.30;96.30;;;;;;4987073;28;20022;-79
2023/05/18 07:26:41;;;;;;;7.75;4.53;;;13.50;96.20;;;;;;4982904;28;20404;-79
2023/05/18 07:29:07;;;;;;;8.20;4.25;;;13.90;94.80;;;;;;4992332;28;20517;-79
2023/05/18 07:31:37;;;;;;;6.75;3.47;;;13.90;93.80;;;;;;4989140;28;20037;-78
2023/05/18 07:34:03;;;;;;;8.85;3.60;;;13.70;91.40;;;;;;4995715;28;20068;-79
2023/05/18 07:36:28;;;;;;;12.40;4.38;;;13.80;91.60;;;;;;5001116;28;20479;-79
2023/05/18 07:38:56;;;;;;;4.60;3.70;;;13.40;92.00;;;;;;5002886;28;20502;-79
2023/05/18 07:41:22;;;;;;;9.18;4.43;;;13.40;92.00;;;;;;5001028;28;20041;-79
2023/05/18 07:43:51;;;;;;;6.75;3.88;;;13.60;91.50;;;;;;4999635;28;20026;-79
2023/05/18 07:46:17;;;;;;;11.25;3.72;;;13.70;91.60;;;;;;4985039;28;20038;-78
2023/05/18 07:48:44;;;;;;;6.80;4.25;;;13.70;92.60;;;;;;4984521;28;20042;-78
2023/05/18 07:51:10;;;;;;;5.13;3.95;;;14.00;92.60;;;;;;5009740;28;20375;-79
2023/05/18 07:53:36;;;;;;;6.45;3.72;;;14.20;92.50;;;;;;5010438;28;20021;-78
2023/05/18 07:56:03;;;;;;;7.78;3.67;;;14.70;90.70;;;;;;4991475;28;20036;-78
2023/05/18 07:58:29;;;;;;;6.78;3.90;;;15.00;85.70;;;;;;4991312;28;20398;-79
2023/05/18 08:00:54;;;;;;;8.55;3.65;;;14.60;86.70;;;;;;5008214;28;20026;-79
2023/05/18 08:03:21;;;;;;;5.53;3.47;;;;;;;;;;4990558;28;20041;-78
2023/05/18 08:05:46;;;;;;;7.78;4.40;;;14.90;87.80;;;;;;4990459;28;20133;-79
2023/05/18 08:08:14;;;;;;;7.45;4.10;;;14.50;85.50;;;;;;5009612;28;20118;-79
2023/05/18 08:10:40;;;;;;;8.25;4.40;;;14.30;87.10;;;;;;4991039;28;20041;-79
2023/05/18 08:13:06;;;;;;;7.95;4.25;;;14.00;88.80;;;;;;5008671;28;20078;-79
2023/05/18 08:15:34;;;;;;;8.18;3.35;;;13.80;89.00;;;;;;5008724;28;20021;-78
2023/05/18 08:18:00;;;;;;;8.70;3.97;;;13.80;90.40;;;;;;4990681;28;20324;-78
2023/05/18 08:20:28;;;;;;;4.68;3.42;;;13.60;92.00;;;;;;5008369;28;20285;-79
2023/05/18 08:22:55;;;;;;;8.13;4.00;;;13.60;90.60;;;;;;5008672;28;20037;-79
2023/05/18 08:25:21;;;;;;;5.75;3.95;;;14.20;90.90;;;;;;5008355;28;20024;-78
2023/05/18 08:27:46;;;;;;;7.80;4.05;;;14.20;89.90;;;;;;4992330;28;20077;-79
2023/05/18 08:30:12;;;;;;;8.88;3.70;;;16.10;90.50;;;;;;4992184;28;20033;-78
2023/05/18 08:32:38;;;;;;;6.72;3.75;;;14.30;85.60;;;;;;5009954;28;20030;-78
2023/05/18 08:35:04;;;;;;;7.43;3.97;;;14.20;85.60;;;;;;4992054;28;20504;-78
2023/05/18 08:37:30;;;;;;;7.43;3.83;;;14.20;85.50;;;;;;4991375;28;20037;-79
2023/05/18 08:39:58;;;;;;;7.40;4.00;;;14.10;86.30;;;;;;5010047;28;20018;-78
2023/05/18 08:42:34;;;;;;;6.40;3.58;;;14.40;87.50;;;;;;5009770;28;20037;-78
2023/05/18 08:45:08;;;;;;;11.02;4.60;;;14.40;84.30;;;;;;5010435;28;20105;-79
2023/05/18 08:47:36;;;;;;;5.03;3.35;;;13.90;86.30;;;;;;4992575;28;20131;-78
2023/05/18 08:50:03;;;;;;;7.25;3.33;;;13.90;85.90;;;;;;5010008;28;20030;-79
2023/05/18 08:52:35;;;;;;;5.68;3.90;;;13.80;85.50;;;;;;5009981;28;20026;-78
2023/05/18 08:55:11;;;;;;;7.53;3.92;;;13.90;87.90;;;;;;5009311;28;20026;-80
2023/05/18 08:57:38;;;;;;;7.45;3.45;;;14.30;86.70;;;;;;4992032;28;20033;-79
2023/05/18 09:00:06;;;;;;;7.97;5.25;;;13.90;87.00;;;;;;4951157;28;1184436;-78
2023/05/18 09:02:33;;;;;;;6.85;3.40;;;14.10;87.50;;;;;;4992520;28;20497;-78
2023/05/18 09:04:59;;;;;;;9.85;4.22;;;14.50;82.00;;;;;;4992386;28;20022;-78
2023/05/18 09:07:26;;;;;;;9.82;4.65;;;14.40;87.00;;;;;;4992683;28;20033;-79
2023/05/18 09:09:53;;;;;;;5.30;3.85;;;14.50;82.90;;;;;;4992461;28;20057;-79
2023/05/18 09:12:22;;;;;;;8.93;3.30;;;14.50;83.70;;;;;;4993103;28;20057;-79
2023/05/18 09:14:47;;;;;;;6.63;4.35;;;14.90;85.80;;;;;;4992638;28;20095;-78
2023/05/18 09:17:13;;;;;;;7.05;4.30;;;14.70;83.10;;;;;;5009997;28;20538;-78
2023/05/18 09:19:39;;;;;;;13.80;4.82;;;14.50;80.50;;;;;;4992393;28;20537;-78
2023/05/18 09:22:05;;;;;;;5.63;3.83;;;14.80;81.50;;;;;;5009498;28;20073;-79
2023/05/18 09:24:32;;;;;;;7.28;4.38;;;14.90;79.80;;;;;;4991812;28;20021;-79
2023/05/18 09:26:58;;;;;;;5.60;3.88;;;14.70;79.10;;;;;;4992267;28;20040;-79
2023/05/18 09:29:24;;;;;;;5.80;3.45;;;14.60;80.30;;;;;;4992138;28;20034;-78
2023/05/18 09:31:50;;;;;;;9.80;3.58;;;14.70;82.00;;;;;;4991982;28;20022;-78
2023/05/18 09:34:20;;;;;;;6.15;3.45;;;14.90;81.40;;;;;;4991981;28;20383;-79
2023/05/18 09:36:51;;;;;;;4.90;2.85;;;15.80;78.70;;;;;;5009550;28;20018;-79
2023/05/18 09:39:17;;;;;;;7.40;4.47;;;16.90;71.30;;;;;;5009602;28;20049;-78
2023/05/18 09:41:43;;;;;;;6.55;3.40;;;16.40;68.80;;;;;;4991956;28;20410;-78
2023/05/18 09:44:11;;;;;;;4.15;3.30;;;16.60;72.10;;;;;;5009992;28;20036;-79
2023/05/18 09:46:38;;;;;;;6.47;2.90;;;16.80;70.90;;;;;;4991918;28;20433;-78
2023/05/18 09:49:05;;;;;;;5.70;3.80;;;16.20;73.70;;;;;;5013515;28;20641;-79
2023/05/18 09:51:38;;;;;;;6.13;3.45;;;15.70;73.90;;;;;;4995636;28;20390;-78
2023/05/18 09:54:06;;;;;;;5.78;3.75;;;15.40;74.30;;;;;;5013181;28;20022;-79
2023/05/18 09:56:35;;;;;;;8.00;3.38;;;14.80;75.60;;;;;;5013333;28;20026;-80
2023/05/18 09:59:12;;;;;;;3.40;3.08;;;14.70;75.00;;;;;;5013330;28;20062;-78
2023/05/18 10:01:55;;;;;;;7.32;3.15;;;14.90;76.60;;;;;;4995734;28;20124;-79
2023/05/18 10:04:21;;;;;;;7.72;3.80;;;15.40;76.20;;;;;;5013260;28;20120;-79
2023/05/18 10:06:51;;;;;;;10.13;4.03;;;15.90;74.90;;;;;;4995622;28;20553;-79
2023/05/18 10:09:16;;;;;;;11.38;3.33;;;16.30;70.30;;;;;;5012578;28;20193;-78
2023/05/18 10:11:42;;;;;;;4.53;2.45;;;16.50;68.30;;;;;;5013105;28;20214;-79
2023/05/18 10:14:11;;;;;;;6.70;3.60;;;16.40;70.40;;;;;;4995411;28;20028;-79
2023/05/18 10:16:37;;;;;;;5.05;3.40;;;16.50;69.70;;;;;;4995390;28;20113;-80
2023/05/18 10:19:06;;;;;;;9.05;3.75;;;17.00;71.00;;;;;;4995506;28;20125;-78
2023/05/18 10:21:32;;;;;;;;;;;17.20;68.00;;;;;;4996220;28;20076;-78
2023/05/18 10:24:02;;;;;;;9.00;3.10;;;17.40;67.80;;;;;;4995452;28;19905;-78
2023/05/18 10:26:30;;;;;;;5.35;2.72;;;17.20;69.40;;;;;;5012753;28;20026;-78
2023/05/18 10:28:57;;;;;;;9.35;3.05;;;17.20;71.80;;;;;;4995002;28;20018;-78
2023/05/18 10:31:26;;;;;;;6.78;3.72;;;18.00;70.30;;;;;;5012581;28;20076;-79
2023/05/18 10:33:52;;;;;;;3.70;2.87;;;17.60;67.20;;;;;;4994774;28;20026;-79
2023/05/18 10:36:19;;;;;;;7.18;3.20;;;17.60;69.80;;;;;;5012426;28;20033;-79
2023/05/18 10:38:46;;;;;;;5.22;3.05;;;17.10;69.50;;;;;;4995487;28;20091;-78
2023/05/18 10:41:13;;;;;;;3.45;3.15;;;17.20;72.40;;;;;;4996413;28;20025;-80
2023/05/18 10:43:40;;;;;;;7.35;3.75;;;18.00;65.80;;;;;;5014793;28;20422;-79
2023/05/18 10:46:09;;;;;;;6.82;3.08;;;18.30;64.80;;;;;;5013919;28;20060;-79
2023/05/18 10:48:38;;;;;;;8.40;3.05;;;18.10;64.60;;;;;;5013281;28;20038;-79
2023/05/18 10:51:06;;;;;;;8.10;2.90;;;18.20;65.50;;;;;;4995617;28;20045;-80
2023/05/18 10:53:32;;;;;;;4.57;2.75;;;18.50;63.80;;;;;;4996425;28;20034;-79
2023/05/18 10:55:58;;;;;;;7.05;2.63;;;18.70;68.10;;;;;;5013484;28;20564;-78
2023/05/18 10:58:26;;;;;;;5.65;2.40;;;19.00;63.80;;;;;;4995769;28;20029;-79
2023/05/18 11:00:54;;;;;;;9.15;3.75;;;18.50;64.70;;;;;;4996284;28;20037;-79
2023/05/18 11:03:21;;;;;;;7.00;2.85;;;17.70;65.10;;;;;;5013409;28;20479;-79
2023/05/18 11:06:05;;;;;;;9.30;2.85;;;17.60;67.00;;;;;;5012866;28;20507;-78
2023/05/18 11:08:31;;;;;;;8.45;2.60;;;17.10;66.80;;;;;;4995360;28;20038;-78
2023/05/18 11:11:02;;;;;;;4.45;3.10;;;17.30;66.50;;;;;;4994050;28;20406;-78
2023/05/18 11:13:32;;;;;;;10.30;3.22;;;17.00;65.50;;;;;;4994682;28;20033;-80
2023/05/18 11:15:58;;;;;;;4.80;2.22;;;16.80;66.50;;;;;;4994788;28;20025;-79
2023/05/18 11:18:42;;;;;;;5.22;2.90;;;17.20;66.40;;;;;;5012468;28;20500;-78
2023/05/18 11:21:40;;;;;;;7.88;2.97;;;17.40;66.00;;;;;;5012292;28;20041;-79
2023/05/18 11:24:20;;;;;;;6.35;3.45;;;17.80;66.20;;;;;;4978603;28;20080;-79
2023/05/18 11:26:48;;;;;;;5.25;2.60;;;18.00;63.60;;;;;;5011562;28;20034;-79
2023/05/18 11:29:32;;;;;;;5.93;3.10;;;17.30;64.60;;;;;;4993744;28;20050;-78
2023/05/18 11:31:58;;;;;;;6.85;3.30;;;16.90;65.90;;;;;;4994497;28;20041;-78
2023/05/18 11:34:44;;;;;;;3.38;2.38;;;16.80;67.40;;;;;;4993903;28;20270;-78
2023/05/18 11:37:11;;;;;;;6.03;2.83;;;16.70;68.00;;;;;;5011873;28;20028;-78
2023/05/18 11:39:37;;;;;;;3.97;2.13;;;16.60;68.90;;;;;;4993819;28;20064;-80
2023/05/18 11:42:13;;;;;;;3.80;2.10;;;16.90;67.00;;;;;;5011643;28;20046;-80
2023/05/18 11:44:39;;;;;;;10.60;2.40;;;16.90;66.60;;;;;;4993731;28;20075;-79
2023/05/18 11:47:08;;;;;;;6.43;2.22;;;17.00;67.60;;;;;;4993918;28;20550;-78
2023/05/18 11:49:44;;;;;;;6.80;2.95;;;17.40;67.70;;;;;;4993891;28;20062;-79
2023/05/18 11:52:23;;;;;;;7.60;2.50;;;17.60;66.10;;;;;;4993773;28;20233;-79
2023/05/18 11:54:51;;;;;;;8.60;3.15;;;17.90;65.50;;;;;;4993382;28;20060;-79
2023/05/18 11:57:18;;;;;;;7.82;3.35;;;17.30;66.20;;;;;;4993361;28;20453;-78
2023/05/18 11:59:48;;;;;;;7.88;3.05;;;17.20;66.80;;;;;;5010857;28;20120;-79
2023/05/18 12:02:23;;;;;;;7.22;2.72;;;17.00;68.10;;;;;;5010946;28;20113;-79
2023/05/18 12:04:52;;;;;;;4.38;3.13;;;16.60;69.80;;;;;;4992924;28;20568;-79
2023/05/18 12:07:19;;;;;;;4.32;2.42;;;16.50;70.30;;;;;;4993328;28;20038;-78
2023/05/18 12:09:46;;;;;;;4.45;3.05;;;16.50;70.00;;;;;;5010489;28;20368;-78
2023/05/18 12:12:16;;;;;;;5.43;2.70;;;16.40;71.20;;;;;;4992501;28;20180;-79
2023/05/18 12:14:43;;;;;;;10.27;4.38;;;16.40;72.50;;;;;;4993225;28;20030;-78
2023/05/18 12:17:10;;;;;;;13.52;10.18;;;16.30;71.40;;;;;;5010929;28;20045;-78
2023/05/18 12:19:47;;;;;;;42.75;26.20;;;16.30;71.70;;;;;;4993298;28;20030;-78
2023/05/18 12:22:13;;;;;;;5.85;3.35;;;16.80;72.50;;;;;;4993138;28;20549;-78
2023/05/18 12:24:40;;;;;;;13.70;8.65;;;17.10;71.00;;;;;;5010207;28;20033;-79
2023/05/18 12:27:08;;;;;;;4.57;2.20;;;17.60;66.50;;;;;;5010605;28;20453;-78
2023/05/18 12:29:37;;;;;;;2.95;2.60;;;17.50;64.50;;;;;;4992724;28;20505;-79
2023/05/18 12:32:09;;;;;;;179.63;102.35;;;17.90;68.60;;;;;;5010672;28;20030;-78
2023/05/18 12:34:35;;;;;;;141.80;79.28;;;18.30;65.50;;;;;;5010638;28;20026;-79
2023/05/18 12:37:02;;;;;;;8.88;3.85;;;18.90;63.00;;;;;;5010221;28;20026;-79
2023/05/18 12:39:27;;;;;;;6.20;4.18;;;19.40;61.90;;;;;;5009955;28;20022;-79
2023/05/18 12:41:53;;;;;;;85.85;57.45;;;19.10;61.80;;;;;;4992312;28;20433;-78
2023/05/18 12:44:20;;;;;;;29.15;18.98;;;19.30;62.00;;;;;;5010367;28;20030;-80
2023/05/18 12:46:46;;;;;;;6.80;4.38;;;19.60;63.00;;;;;;5010456;28;20352;-76
2023/05/18 12:49:12;;;;;;;18.52;9.15;;;20.20;62.50;;;;;;4992701;28;20065;-76
2023/05/18 12:51:38;;;;;;;4.28;2.25;;;20.60;59.10;;;;;;4993066;28;20114;-79
2023/05/18 12:54:08;;;;;;;5.85;2.45;;;20.60;56.90;;;;;;5010182;28;20029;-79
2023/05/18 12:57:00;;;;;;;3.50;2.28;;;20.80;57.70;;;;;;5011783;28;20049;-76